Conroe's Hourly Summary for Thursday, March 9, 2017
Hour Temp
(f)
RH
(%)
Solar Rad.
(MJ/m2)
Rainfall
(in)
Wind
(mph)
3/9/2017 12:00 AM 63 99 0 0 1.84
3/9/2017 1:00 AM 64 99 0 0 2.77
3/9/2017 2:00 AM 64 99 0 0 2.21
3/9/2017 3:00 AM 64 99 0 0 1.52
3/9/2017 4:00 AM 64 99 0 0 1.78
3/9/2017 5:00 AM 64 99 0 0 1.97
3/9/2017 6:00 AM 65 99 0 0 1.32
3/9/2017 7:00 AM 65 99 0 0 1.49
3/9/2017 8:00 AM 65 99 0.07 0 1.48
3/9/2017 9:00 AM 66 99 0.17 0 1.85
3/9/2017 10:00 AM 68 83 0.41 0 2.27
3/9/2017 11:00 AM 70 75 0.81 0 3.49
3/9/2017 12:00 PM 73 69 1.3 0 3.98
3/9/2017 1:00 PM 74 64 0.74 0 2.7
3/9/2017 2:00 PM 76 61 0.95 0 2.84
3/9/2017 3:00 PM 76 61 0.81 0 3.09
3/9/2017 4:00 PM 74 70 0.23 0 2.57
3/9/2017 5:00 PM 73 72 0.08 0 2.66
3/9/2017 6:00 PM 72 76 0.07 0 1.82
3/9/2017 7:00 PM 71 80 0.01 0 1.46
3/9/2017 8:00 PM 71 81 0 0 1.38
3/9/2017 9:00 PM 70 87 0 0 1.1
3/9/2017 10:00 PM 70 87 0 0 1.23
3/9/2017 11:00 PM 69 95 0 0 1.31
Data Summary 68 85 5.65 0.00 2.09